This is the latest recevied weather packets stored in our database for station/object DH5DY-13. If no packets are shown the sender has not sent any weather packets the latest 10 day(s).
| Time | Temp. | Humidity | Pressure | Rain* | Wind** | Luminosity | Snow |
|---|---|---|---|---|---|---|---|
| 1777657312 | 21.67° C | 31% | 1021.8 hPa | 0 mm | - | 102 W/m² | - |
| 1777656107 | 22.22° C | 30% | 1021.8 hPa | 0 mm | - | 158 W/m² | - |
| 1777654901 | 22.22° C | 31% | 1021.8 hPa | 0 mm | - | 218 W/m² | - |
| 1777653696 | 22.78° C | 29% | 1021.9 hPa | 0 mm | - | 272 W/m² | - |
| 1777652492 | 22.78° C | 30% | 1021.9 hPa | 0 mm | - | 323 W/m² | - |
| 1777651287 | 22.78° C | 30% | 1022 hPa | 0 mm | - | 378 W/m² | - |
| 1777648872 | 22.78° C | 30% | 1022.5 hPa | 0 mm | - | 471 W/m² | - |
| 1777644046 | 22.22° C | 30% | 1023.3 hPa | 0 mm | - | 643 W/m² | - |
| 1777641627 | 21.67° C | 30% | 1023.5 hPa | 0 mm | - | 705 W/m² | - |
| 1777640419 | 21.67° C | 30% | 1023.9 hPa | 0 mm | - | 731 W/m² | - |
| 1777639210 | 21.11° C | 30% | 1024.1 hPa | 0 mm | - | 752 W/m² | - |
| 1777638000 | 20° C | 31% | 1024.4 hPa | 0 mm | - | 772 W/m² | - |
| 1777633171 | 18.89° C | 34% | 1025.2 hPa | 0 mm | - | 766 W/m² | - |
| 1777630759 | 17.78° C | 34% | 1025.2 hPa | 0 mm | - | 735 W/m² | - |
| 1777629544 | 17.22° C | 33% | 1025.8 hPa | 0 mm | - | 715 W/m² | - |
| 1777625917 | 15.56° C | 35% | 1026.1 hPa | 0 mm | - | 621 W/m² | - |
| 1777624702 | 15° C | 34% | 1026.1 hPa | 0 mm | - | 584 W/m² | - |
| 1777623493 | 15° C | 34% | 1026.3 hPa | 0 mm | - | 541 W/m² | - |
| 1777622284 | 14.44° C | 35% | 1026.2 hPa | 0 mm | - | 496 W/m² | - |
| 1777621081 | 13.89° C | 37% | 1026.1 hPa | 0 mm | - | 448 W/m² | - |
| 1777619878 | 12.78° C | 40% | 1026.3 hPa | 0 mm | - | 290 W/m² | - |
| 1777618675 | 12.22° C | 45% | 1026.3 hPa | 0 mm | - | 343 W/m² | - |
| 1777581181 | 10° C | 53% | 1025.8 hPa | 0 mm | - | 0 W/m² | - |
| 1777579976 | 10.56° C | 52% | 1025.9 hPa | 0 mm | - | 0 W/m² | - |
| 1777578765 | 11.11° C | 48% | 1025.8 hPa | 0 mm | - | 0 W/m² | - |
* Rain latest hour (hover to see other rain measurements)
** Current wind speed in m/s (hover to see current wind gust speed)